createdAt,value
2022-12-31T00:02:02.449Z,0.30
2022-12-31T00:04:29.665Z,0.28
2022-12-31T00:06:56.839Z,0.32
2022-12-31T00:09:23.990Z,0.47
2022-12-31T00:11:51.150Z,0.30
2022-12-31T00:14:18.666Z,0.30
2022-12-31T00:16:45.856Z,0.60
2022-12-31T00:19:13.110Z,0.55
2022-12-31T00:21:40.571Z,0.25
2022-12-31T00:24:07.944Z,1.38
2022-12-31T00:26:35.459Z,0.60
2022-12-31T00:29:03.036Z,0.40
2022-12-31T00:31:31.720Z,0.38
2022-12-31T00:33:59.403Z,0.20
2022-12-31T00:36:31.880Z,0.57
2022-12-31T00:39:00.128Z,0.55
2022-12-31T00:41:28.094Z,0.63
2022-12-31T00:43:55.732Z,0.55
2022-12-31T00:46:23.384Z,0.30
2022-12-31T00:48:50.619Z,0.30
2022-12-31T00:51:18.960Z,0.22
2022-12-31T00:53:46.661Z,0.25
2022-12-31T00:56:18.771Z,0.20
2022-12-31T00:58:46.112Z,1.90
2022-12-31T01:01:15.803Z,0.22
2022-12-31T01:03:43.405Z,1.90
2022-12-31T01:06:10.640Z,0.25
2022-12-31T01:08:37.807Z,0.20
2022-12-31T01:11:22.500Z,0.10
2022-12-31T01:13:54.443Z,0.22
2022-12-31T01:16:23.711Z,0.40
2022-12-31T01:18:51.598Z,0.20
2022-12-31T01:21:19.172Z,0.35
2022-12-31T01:23:46.479Z,0.28
2022-12-31T01:26:15.138Z,0.00
2022-12-31T01:28:42.268Z,1.15
2022-12-31T01:31:11.464Z,0.80
2022-12-31T01:33:39.026Z,0.30
2022-12-31T01:36:07.656Z,0.20
2022-12-31T01:38:35.478Z,0.38
2022-12-31T01:41:02.768Z,0.30
2022-12-31T01:43:48.815Z,0.30
2022-12-31T01:46:22.764Z,0.38
2022-12-31T01:48:51.528Z,0.30
2022-12-31T01:51:18.771Z,0.73
2022-12-31T01:53:46.380Z,0.20
2022-12-31T01:56:13.670Z,0.60
2022-12-31T01:58:44.007Z,0.30
2022-12-31T02:01:14.229Z,0.20
2022-12-31T02:03:41.920Z,1.27
2022-12-31T02:06:09.092Z,0.38
2022-12-31T02:08:41.958Z,0.10
2022-12-31T02:11:23.264Z,0.10
2022-12-31T02:13:55.089Z,0.50
2022-12-31T02:19:11.311Z,1.65
2022-12-31T02:21:38.666Z,0.10
2022-12-31T02:24:25.139Z,0.20
2022-12-31T02:26:52.485Z,0.38
2022-12-31T02:29:22.810Z,0.63
2022-12-31T02:31:57.037Z,0.25
2022-12-31T02:34:28.452Z,0.30
2022-12-31T02:36:57.873Z,0.30
2022-12-31T02:39:25.156Z,0.20
2022-12-31T02:41:53.776Z,0.10
2022-12-31T02:44:24.347Z,0.20
2022-12-31T02:46:54.516Z,0.80
2022-12-31T02:49:27.085Z,0.30
2022-12-31T02:52:01.656Z,0.10
2022-12-31T02:54:30.852Z,0.20
2022-12-31T02:57:04.009Z,0.10
2022-12-31T03:00:05.011Z,0.52
2022-12-31T03:02:33.745Z,0.50
2022-12-31T03:05:02.543Z,0.20
2022-12-31T03:07:30.814Z,0.30
2022-12-31T03:09:57.972Z,0.10
2022-12-31T03:12:48.264Z,0.75
2022-12-31T03:15:19.962Z,0.10
2022-12-31T03:17:51.263Z,0.20
2022-12-31T03:20:37.662Z,1.58
2022-12-31T03:23:06.506Z,0.17
2022-12-31T03:25:34.656Z,0.35
2022-12-31T03:28:02.986Z,0.25
2022-12-31T03:30:30.836Z,0.38
2022-12-31T03:32:58.457Z,0.40
2022-12-31T03:35:26.347Z,0.20
2022-12-31T03:37:54.130Z,0.28
2022-12-31T03:40:22.715Z,0.20
2022-12-31T03:42:49.884Z,0.20
2022-12-31T03:45:17.152Z,0.20
2022-12-31T03:47:44.360Z,2.20
2022-12-31T03:50:12.554Z,0.22
2022-12-31T03:52:39.788Z,0.30
2022-12-31T03:55:07.352Z,0.20
2022-12-31T03:57:34.709Z,0.20
2022-12-31T04:00:01.976Z,0.38
2022-12-31T04:02:29.694Z,0.52
2022-12-31T04:04:57.005Z,0.17
2022-12-31T04:07:24.881Z,0.35
2022-12-31T04:09:52.038Z,0.20
2022-12-31T04:12:19.367Z,1.25
2022-12-31T04:14:46.618Z,0.70
2022-12-31T04:17:13.766Z,0.45
2022-12-31T04:19:40.995Z,0.20
2022-12-31T04:22:08.176Z,0.35
2022-12-31T04:24:35.333Z,1.75
2022-12-31T04:27:07.545Z,0.20
2022-12-31T04:29:35.463Z,0.10
2022-12-31T04:32:02.983Z,0.60
2022-12-31T04:34:30.156Z,0.20
2022-12-31T04:36:57.392Z,0.20
2022-12-31T04:39:25.090Z,0.10
2022-12-31T04:41:52.374Z,0.43
2022-12-31T04:44:20.009Z,0.30
2022-12-31T04:46:47.180Z,0.25
2022-12-31T04:49:14.385Z,0.10
2022-12-31T04:51:41.545Z,0.20
2022-12-31T04:54:08.691Z,0.40
2022-12-31T04:56:39.118Z,0.40
2022-12-31T04:59:07.333Z,0.10
2022-12-31T05:01:34.626Z,0.63
2022-12-31T05:04:01.903Z,0.20
2022-12-31T05:06:29.047Z,0.20
2022-12-31T05:08:56.437Z,0.40
2022-12-31T05:11:23.610Z,1.02
2022-12-31T05:13:50.761Z,0.20
2022-12-31T05:16:18.013Z,0.20
2022-12-31T05:18:45.213Z,0.10
2022-12-31T05:21:15.780Z,0.60
2022-12-31T05:23:42.965Z,0.17
2022-12-31T05:26:10.108Z,0.32
2022-12-31T05:28:37.245Z,0.73
2022-12-31T05:31:04.421Z,0.13
2022-12-31T05:33:31.602Z,0.30
2022-12-31T05:35:58.787Z,0.10
2022-12-31T05:38:26.734Z,0.32
2022-12-31T05:41:01.203Z,0.57
2022-12-31T05:43:28.544Z,1.17
2022-12-31T05:45:55.748Z,1.17
2022-12-31T05:48:22.966Z,0.15
2022-12-31T05:50:50.411Z,0.98
2022-12-31T05:53:17.536Z,0.20
2022-12-31T05:55:46.126Z,0.20
2022-12-31T05:58:13.400Z,0.22
2022-12-31T06:00:41.975Z,0.50
2022-12-31T06:03:09.306Z,0.13
2022-12-31T06:05:39.457Z,0.20
2022-12-31T06:08:06.616Z,0.20
2022-12-31T06:10:33.800Z,1.83
2022-12-31T06:13:01.070Z,1.08
2022-12-31T06:15:28.205Z,0.28
2022-12-31T06:17:55.645Z,0.43
2022-12-31T06:20:23.208Z,0.70
2022-12-31T06:22:50.415Z,1.05
2022-12-31T06:25:17.542Z,0.85
2022-12-31T06:27:44.797Z,0.40
2022-12-31T06:30:12.284Z,1.85
2022-12-31T06:32:40.719Z,1.05
2022-12-31T06:35:08.208Z,0.52
2022-12-31T06:37:35.374Z,0.73
2022-12-31T06:40:02.654Z,0.88
2022-12-31T06:42:30.947Z,1.10
2022-12-31T06:44:58.870Z,0.75
2022-12-31T06:47:26.081Z,0.47
2022-12-31T06:49:53.326Z,0.50
2022-12-31T06:52:20.629Z,0.47
2022-12-31T06:54:48.302Z,0.73
2022-12-31T06:57:15.974Z,0.52
2022-12-31T06:59:44.777Z,0.20
2022-12-31T07:02:23.546Z,0.30
2022-12-31T07:04:59.942Z,0.47
2022-12-31T07:07:31.494Z,0.60
2022-12-31T07:10:07.893Z,0.60
2022-12-31T07:13:03.319Z,1.77
2022-12-31T07:15:49.383Z,0.43
2022-12-31T07:18:32.185Z,0.93
2022-12-31T07:20:59.446Z,0.63
2022-12-31T07:23:26.759Z,0.45
2022-12-31T07:26:07.453Z,0.63
2022-12-31T07:28:37.342Z,0.70
2022-12-31T07:31:23.315Z,0.30
2022-12-31T07:34:00.906Z,0.40
2022-12-31T07:36:34.669Z,0.22
2022-12-31T07:39:01.828Z,0.45
2022-12-31T07:41:47.876Z,0.40
2022-12-31T07:44:21.055Z,0.50
2022-12-31T07:46:58.324Z,0.50
2022-12-31T07:49:26.274Z,1.08
2022-12-31T07:51:53.848Z,0.77
2022-12-31T07:54:21.497Z,0.55
2022-12-31T07:56:49.180Z,0.57
2022-12-31T07:59:24.040Z,1.55
2022-12-31T08:02:08.322Z,0.50
2022-12-31T08:04:38.562Z,0.30
2022-12-31T08:07:24.521Z,1.75
2022-12-31T08:09:51.662Z,0.60
2022-12-31T08:12:19.378Z,0.35
2022-12-31T08:14:47.847Z,0.63
2022-12-31T08:17:16.450Z,0.88
2022-12-31T08:19:45.724Z,0.82
2022-12-31T08:22:22.019Z,0.80
2022-12-31T08:25:09.253Z,0.88
2022-12-31T08:27:36.383Z,0.77
2022-12-31T08:30:06.675Z,0.80
2022-12-31T08:33:03.268Z,0.40
2022-12-31T08:35:46.147Z,0.70
2022-12-31T08:38:22.577Z,0.95
2022-12-31T08:41:03.912Z,0.82
2022-12-31T08:43:39.632Z,0.47
2022-12-31T08:46:09.089Z,1.10
2022-12-31T08:48:44.277Z,1.20
2022-12-31T08:51:22.238Z,1.77
2022-12-31T08:53:49.713Z,1.50
2022-12-31T08:56:37.112Z,1.05
2022-12-31T08:59:09.171Z,1.10
2022-12-31T09:01:56.724Z,2.88
2022-12-31T09:04:39.328Z,2.00
2022-12-31T09:07:07.040Z,1.35
2022-12-31T09:09:42.120Z,1.52
2022-12-31T09:12:09.250Z,2.40
2022-12-31T09:14:42.198Z,1.55
2022-12-31T09:17:29.589Z,1.60
2022-12-31T09:19:56.898Z,1.98
2022-12-31T09:22:24.111Z,1.27
2022-12-31T09:24:51.429Z,0.73
2022-12-31T09:27:27.505Z,2.90
2022-12-31T09:30:04.053Z,1.30
2022-12-31T09:32:31.344Z,0.73
2022-12-31T09:35:03.925Z,1.30
2022-12-31T09:37:42.138Z,1.35
2022-12-31T09:40:32.564Z,0.63
2022-12-31T09:42:59.860Z,1.00
2022-12-31T09:45:37.228Z,2.42
2022-12-31T09:48:04.373Z,2.95
2022-12-31T09:50:37.715Z,0.32
2022-12-31T09:53:13.445Z,0.57
2022-12-31T09:56:09.905Z,1.30
2022-12-31T09:58:55.825Z,0.40
2022-12-31T10:01:29.185Z,0.98
2022-12-31T10:04:25.379Z,0.80
2022-12-31T10:06:52.492Z,1.00
2022-12-31T10:09:22.931Z,0.77
2022-12-31T10:11:50.067Z,0.38
2022-12-31T10:14:40.982Z,1.23
2022-12-31T10:17:26.321Z,1.50
2022-12-31T10:19:56.302Z,0.70
2022-12-31T10:22:23.451Z,0.85
2022-12-31T10:24:53.643Z,2.22
2022-12-31T10:27:21.323Z,0.30
2022-12-31T10:29:49.595Z,0.52
2022-12-31T10:32:16.913Z,0.47
2022-12-31T10:34:59.322Z,0.50
2022-12-31T10:37:36.671Z,0.50
2022-12-31T10:40:09.982Z,0.50
2022-12-31T10:42:37.162Z,0.68
2022-12-31T10:45:23.383Z,1.05
2022-12-31T10:47:56.633Z,0.80
2022-12-31T10:50:37.221Z,1.08
2022-12-31T10:53:04.374Z,0.75
2022-12-31T10:55:42.103Z,0.40
2022-12-31T10:58:12.369Z,0.43
2022-12-31T11:00:54.161Z,0.60
2022-12-31T11:03:40.297Z,1.13
2022-12-31T11:06:26.247Z,0.82
2022-12-31T11:09:22.638Z,2.00
2022-12-31T11:11:49.789Z,0.95
2022-12-31T11:14:32.259Z,0.45
2022-12-31T11:17:08.636Z,1.17
2022-12-31T11:19:49.571Z,1.00
2022-12-31T11:22:19.859Z,0.82
2022-12-31T11:25:05.792Z,1.02
2022-12-31T11:27:49.731Z,2.20
2022-12-31T11:30:35.477Z,0.82
2022-12-31T11:33:25.539Z,3.08
2022-12-31T11:36:11.624Z,1.73
2022-12-31T11:38:41.261Z,0.85
2022-12-31T11:41:10.810Z,0.77
2022-12-31T11:43:57.501Z,1.00
2022-12-31T11:46:30.777Z,4.50
2022-12-31T11:49:16.857Z,2.80
2022-12-31T11:51:56.373Z,3.83
2022-12-31T11:54:43.143Z,2.85
2022-12-31T11:57:18.106Z,2.85
2022-12-31T11:59:45.780Z,1.40
2022-12-31T12:02:15.933Z,2.65
2022-12-31T12:04:47.132Z,1.08
2022-12-31T12:07:15.303Z,1.13
2022-12-31T12:09:44.678Z,1.05
2022-12-31T12:12:12.241Z,0.82
2022-12-31T12:14:40.793Z,1.48
2022-12-31T12:17:09.607Z,0.85
2022-12-31T12:19:42.077Z,0.70
2022-12-31T12:22:35.856Z,5.22
2022-12-31T12:25:04.861Z,1.20
2022-12-31T12:27:34.283Z,1.10
2022-12-31T12:30:30.914Z,1.73
2022-12-31T12:32:59.511Z,0.82
2022-12-31T12:35:30.934Z,0.82
2022-12-31T12:38:13.038Z,1.77
2022-12-31T12:40:40.712Z,1.35
2022-12-31T12:43:22.179Z,0.70
2022-12-31T12:45:52.343Z,0.60
2022-12-31T12:48:22.406Z,0.70
2022-12-31T12:50:50.284Z,1.17
2022-12-31T12:53:50.008Z,0.70
2022-12-31T12:56:20.278Z,2.55
2022-12-31T12:59:06.128Z,1.73
2022-12-31T13:01:55.945Z,2.35
2022-12-31T13:04:42.115Z,1.10
2022-12-31T13:07:12.209Z,0.95
2022-12-31T13:09:57.964Z,1.00
2022-12-31T13:13:05.298Z,1.10
2022-12-31T13:15:31.126Z,1.00
2022-12-31T13:18:17.341Z,0.57
2022-12-31T13:21:01.760Z,0.88
2022-12-31T13:23:48.010Z,1.43
2022-12-31T13:26:17.393Z,1.75
2022-12-31T13:28:46.448Z,1.00
2022-12-31T13:31:16.024Z,1.20
2022-12-31T13:33:48.368Z,0.93
2022-12-31T13:36:17.306Z,2.25
2022-12-31T13:38:46.933Z,2.25
2022-12-31T13:41:20.100Z,1.73
2022-12-31T13:43:51.138Z,2.42
2022-12-31T13:46:37.274Z,2.35
2022-12-31T13:49:06.615Z,1.05
2022-12-31T13:51:47.274Z,3.83
2022-12-31T13:54:22.768Z,1.45
2022-12-31T13:56:51.462Z,1.30
2022-12-31T13:59:24.463Z,1.98
2022-12-31T14:02:26.665Z,2.40
2022-12-31T14:04:56.507Z,1.30
2022-12-31T14:07:38.857Z,2.58
2022-12-31T14:10:13.667Z,2.10
2022-12-31T14:12:50.968Z,5.38
2022-12-31T14:15:18.105Z,2.22
2022-12-31T14:17:54.238Z,1.58
2022-12-31T14:20:35.715Z,1.77
2022-12-31T14:23:21.731Z,1.27
2022-12-31T14:25:52.066Z,2.10
2022-12-31T14:28:26.590Z,1.00
2022-12-31T14:30:57.479Z,2.58
2022-12-31T14:33:30.869Z,2.90
2022-12-31T14:35:58.009Z,2.28
2022-12-31T14:38:30.060Z,1.52
2022-12-31T14:41:09.554Z,1.80
2022-12-31T14:43:36.661Z,3.65
2022-12-31T14:46:03.862Z,4.10
2022-12-31T14:48:34.260Z,5.43
2022-12-31T14:51:02.699Z,2.53
2022-12-31T14:53:30.242Z,3.97
2022-12-31T14:56:04.802Z,4.20
2022-12-31T14:58:36.783Z,1.75
2022-12-31T15:01:16.518Z,3.35
2022-12-31T15:03:46.197Z,2.15
2022-12-31T15:06:34.088Z,3.15
2022-12-31T15:09:17.380Z,3.22
2022-12-31T15:11:46.300Z,2.97
2022-12-31T15:14:37.271Z,5.40
2022-12-31T15:17:26.459Z,2.72
2022-12-31T15:20:03.252Z,3.78
2022-12-31T15:22:37.128Z,16.52
2022-12-31T15:25:05.853Z,4.63
2022-12-31T15:27:42.245Z,5.40
2022-12-31T15:30:30.542Z,3.70
2022-12-31T15:32:59.541Z,4.60
2022-12-31T15:35:30.980Z,8.13
2022-12-31T15:38:00.485Z,8.00
2022-12-31T15:40:29.601Z,4.88
2022-12-31T15:42:59.973Z,5.55
2022-12-31T15:45:32.382Z,8.60
2022-12-31T15:48:01.241Z,6.07
2022-12-31T15:50:28.641Z,6.38
2022-12-31T15:52:56.778Z,6.50
2022-12-31T15:55:24.007Z,8.13
2022-12-31T15:57:51.210Z,7.38
2022-12-31T16:00:22.597Z,9.43
2022-12-31T16:02:52.428Z,4.78
2022-12-31T16:05:21.141Z,8.95
2022-12-31T16:07:48.535Z,8.07
2022-12-31T16:10:23.252Z,7.40
2022-12-31T16:12:50.692Z,9.68
2022-12-31T16:15:23.461Z,8.50
2022-12-31T16:18:04.802Z,7.55
2022-12-31T16:20:32.997Z,10.57
2022-12-31T16:23:02.363Z,10.23
2022-12-31T16:25:31.956Z,10.32
2022-12-31T16:27:59.678Z,9.77
2022-12-31T16:30:28.951Z,10.82
2022-12-31T16:33:03.720Z,9.40
2022-12-31T16:35:32.670Z,12.35
2022-12-31T16:38:03.653Z,12.02
2022-12-31T16:40:31.000Z,13.90
2022-12-31T16:42:58.138Z,13.52
2022-12-31T16:45:38.586Z,12.05
2022-12-31T16:48:24.207Z,12.10
2022-12-31T16:50:53.561Z,10.50
2022-12-31T16:53:24.850Z,13.90
2022-12-31T16:55:57.936Z,12.65
2022-12-31T16:58:28.331Z,16.02
2022-12-31T17:00:56.354Z,16.58
2022-12-31T17:03:24.947Z,15.27
2022-12-31T17:06:01.524Z,16.52
2022-12-31T17:08:38.777Z,19.75
2022-12-31T17:11:06.397Z,26.60
2022-12-31T17:13:35.659Z,28.38
2022-12-31T17:16:03.124Z,29.65
2022-12-31T17:18:37.123Z,30.20
2022-12-31T17:21:09.213Z,28.75
2022-12-31T17:23:37.378Z,31.52
2022-12-31T17:26:07.639Z,36.40
2022-12-31T17:28:48.458Z,42.78
2022-12-31T17:31:36.274Z,36.70
2022-12-31T17:34:18.136Z,38.15
2022-12-31T17:36:59.270Z,39.53
2022-12-31T17:39:26.939Z,45.55
2022-12-31T17:41:56.975Z,67.43
2022-12-31T17:44:26.530Z,55.08
2022-12-31T17:46:54.407Z,48.75
2022-12-31T17:49:27.243Z,48.28
2022-12-31T17:51:54.431Z,39.53
2022-12-31T17:54:21.672Z,39.60
2022-12-31T17:56:48.944Z,41.67
2022-12-31T17:59:21.619Z,43.50
2022-12-31T18:01:49.415Z,48.60
2022-12-31T18:04:17.549Z,67.65
2022-12-31T18:06:44.914Z,63.47
2022-12-31T18:09:12.417Z,72.47
2022-12-31T18:11:40.856Z,57.78
2022-12-31T18:14:08.200Z,51.67
2022-12-31T18:16:35.624Z,58.47
2022-12-31T18:19:02.869Z,57.08
2022-12-31T18:21:32.419Z,60.58
2022-12-31T18:26:26.815Z,58.03
2022-12-31T18:28:54.269Z,60.50
2022-12-31T18:31:28.614Z,57.92
2022-12-31T18:33:57.190Z,57.97
2022-12-31T18:36:25.069Z,81.78
2022-12-31T18:38:52.303Z,72.60
2022-12-31T18:41:24.085Z,90.50
2022-12-31T18:43:51.321Z,160.52
2022-12-31T18:46:20.012Z,164.27
2022-12-31T18:48:47.304Z,155.77
2022-12-31T18:51:19.415Z,130.50
2022-12-31T18:53:46.573Z,83.13
2022-12-31T18:56:14.944Z,76.88
2022-12-31T18:58:42.513Z,82.45
2022-12-31T19:01:25.352Z,51.15
2022-12-31T19:03:52.644Z,54.45
2022-12-31T19:06:19.831Z,73.80
2022-12-31T19:08:46.994Z,36.78
2022-12-31T19:11:14.916Z,34.47
2022-12-31T19:13:42.208Z,40.60
2022-12-31T19:16:10.504Z,31.80
2022-12-31T19:18:37.750Z,34.95
2022-12-31T19:21:05.488Z,35.65
2022-12-31T19:23:32.787Z,40.47
2022-12-31T19:26:00.017Z,100.25
2022-12-31T19:28:28.279Z,69.50
2022-12-31T19:30:55.473Z,47.65
2022-12-31T19:33:22.706Z,45.47
2022-12-31T19:35:50.284Z,52.53
2022-12-31T19:38:22.158Z,108.60
2022-12-31T19:40:50.227Z,109.00
2022-12-31T19:43:18.491Z,69.55
2022-12-31T19:45:45.779Z,51.15
2022-12-31T19:48:13.714Z,53.30
2022-12-31T19:50:42.492Z,51.97
2022-12-31T19:53:12.023Z,41.22
2022-12-31T19:55:39.664Z,35.72
2022-12-31T19:58:07.342Z,35.83
2022-12-31T20:00:34.844Z,43.88
2022-12-31T20:03:02.127Z,48.15
2022-12-31T20:05:29.394Z,42.10
2022-12-31T20:07:56.525Z,44.15
2022-12-31T20:10:23.718Z,42.95
2022-12-31T20:12:50.927Z,45.47
2022-12-31T20:15:18.308Z,36.92
2022-12-31T20:17:45.540Z,27.08
2022-12-31T20:20:12.674Z,31.27
2022-12-31T20:22:39.901Z,28.67
2022-12-31T20:25:07.233Z,31.15
2022-12-31T20:27:34.615Z,30.13
2022-12-31T20:30:01.776Z,32.40
2022-12-31T20:32:29.280Z,39.28
2022-12-31T20:34:56.466Z,55.92
2022-12-31T20:37:23.687Z,43.42
2022-12-31T20:39:50.874Z,41.70
2022-12-31T20:42:18.008Z,50.30
2022-12-31T20:44:45.174Z,49.70
2022-12-31T20:47:12.463Z,42.25
2022-12-31T20:50:09.779Z,39.50
2022-12-31T20:52:26.882Z,37.55
2022-12-31T20:54:54.229Z,39.88
2022-12-31T20:57:21.456Z,52.08
2022-12-31T20:59:48.639Z,48.20
2022-12-31T21:02:39.232Z,50.58
2022-12-31T21:05:03.377Z,81.32
2022-12-31T21:07:30.682Z,59.78
2022-12-31T21:09:57.855Z,44.75
2022-12-31T21:12:43.507Z,45.47
2022-12-31T21:15:13.737Z,50.42
2022-12-31T21:17:40.953Z,55.35
2022-12-31T21:20:08.488Z,54.05
2022-12-31T21:22:35.675Z,54.53
2022-12-31T21:25:03.252Z,88.50
2022-12-31T21:27:30.563Z,83.70
2022-12-31T21:32:44.963Z,57.00
2022-12-31T21:35:41.600Z,47.20
2022-12-31T21:38:02.949Z,51.17
2022-12-31T21:40:30.823Z,33.30
2022-12-31T21:42:58.375Z,23.10
2022-12-31T21:45:25.561Z,27.05
2022-12-31T21:48:11.200Z,20.42
2022-12-31T21:50:38.335Z,61.42
2022-12-31T21:53:05.644Z,182.30
2022-12-31T21:55:51.278Z,28.88
2022-12-31T21:58:27.424Z,16.50
2022-12-31T22:01:14.704Z,30.10
2022-12-31T22:03:42.065Z,117.32
2022-12-31T22:06:14.200Z,173.20
2022-12-31T22:08:42.132Z,90.53
2022-12-31T22:11:09.980Z,68.50
2022-12-31T22:13:37.723Z,57.78
2022-12-31T22:16:06.158Z,51.75
2022-12-31T22:18:35.643Z,98.10
2022-12-31T22:21:18.440Z,94.53
2022-12-31T22:23:46.905Z,50.78
2022-12-31T22:26:15.396Z,56.20
2022-12-31T22:28:43.294Z,40.97
2022-12-31T22:31:13.594Z,35.00
2022-12-31T22:33:40.789Z,37.15
2022-12-31T22:36:09.371Z,27.20
2022-12-31T22:38:36.538Z,28.50
2022-12-31T22:41:03.737Z,27.00
2022-12-31T22:43:32.372Z,26.75
2022-12-31T22:45:59.586Z,26.02
2022-12-31T22:48:26.761Z,47.95
2022-12-31T22:50:57.749Z,44.78
2022-12-31T22:53:25.142Z,32.15
2022-12-31T22:55:54.486Z,29.35
2022-12-31T22:58:22.326Z,28.73
2022-12-31T23:00:49.925Z,35.63
2022-12-31T23:03:17.394Z,48.85
2022-12-31T23:05:45.362Z,318.83
2022-12-31T23:08:20.706Z,411.52
2022-12-31T23:11:00.155Z,206.65
2022-12-31T23:13:50.623Z,621.85
2022-12-31T23:16:36.724Z,1102.70
2022-12-31T23:19:22.427Z,508.75
2022-12-31T23:22:08.459Z,531.15
2022-12-31T23:24:35.841Z,483.08
2022-12-31T23:27:03.354Z,413.13
2022-12-31T23:29:30.522Z,467.95
2022-12-31T23:31:57.711Z,507.55
2022-12-31T23:34:24.864Z,503.88
2022-12-31T23:36:52.024Z,558.55
2022-12-31T23:39:19.209Z,690.00
2022-12-31T23:41:46.422Z,495.00
2022-12-31T23:44:13.600Z,563.97
2022-12-31T23:46:41.075Z,556.25
2022-12-31T23:49:08.317Z,538.67
2022-12-31T23:51:36.657Z,435.48
2022-12-31T23:54:07.352Z,405.52
2022-12-31T23:56:34.727Z,397.02
2022-12-31T23:59:01.918Z,403.27
